Winkle, Illinois
Current Conditions -  °F | °C
As of 10:15 PM on Tuesday 21 Oct 2014 (Local Time) from KSAR Reporting Station
Clear Clear  
Wind Chill: 46°   Ceiling: Unl
Heat Index: 47°   Visibility: 10mi
Dew Point: 42°   Wind: 5mph
Humidity: 80%   Direction: 70°ENE
Pressure: 30.2"   Gusts: NA
Location:  38.1705°N, 89.5556°W
Report Text: KSAR 220315Z AUTO 07004KT 10SM CLR 09/05 A3020 RMK AO2 T00860054
Loading
Personal Weather Stations






























Interactive Weather Map
Tropical Storm Tracking
New forecast layout! Learn more

10-Day Weather Forecast

Advertisements
Track Severe Weather on mobile